sensor_id;sensor_type;location;lat;lon;timestamp;P1;durP1;ratioP1;P2;durP2;ratioP2
60088;SDS011;45961;53.574;55.878;2023-05-10T00:00:42;31.05;;;18.40;;
60088;SDS011;45961;53.574;55.878;2023-05-10T00:02:44;26.98;;;15.43;;
60088;SDS011;45961;53.574;55.878;2023-05-10T00:03:45;27.02;;;17.17;;
60088;SDS011;45961;53.574;55.878;2023-05-10T00:04:46;34.72;;;16.60;;
60088;SDS011;45961;53.574;55.878;2023-05-10T00:05:47;29.30;;;16.92;;
60088;SDS011;45961;53.574;55.878;2023-05-10T00:06:48;31.00;;;17.25;;
60088;SDS011;45961;53.574;55.878;2023-05-10T00:07:49;26.40;;;17.38;;
60088;SDS011;45961;53.574;55.878;2023-05-10T00:08:50;30.27;;;17.13;;
60088;SDS011;45961;53.574;55.878;2023-05-10T00:09:51;28.13;;;18.48;;
60088;SDS011;45961;53.574;55.878;2023-05-10T00:10:52;30.85;;;17.80;;
60088;SDS011;45961;53.574;55.878;2023-05-10T00:11:53;30.55;;;18.02;;
60088;SDS011;45961;53.574;55.878;2023-05-10T00:12:54;27.70;;;18.13;;
60088;SDS011;45961;53.574;55.878;2023-05-10T00:13:55;27.75;;;16.55;;
60088;SDS011;45961;53.574;55.878;2023-05-10T00:14:56;25.63;;;16.80;;
60088;SDS011;45961;53.574;55.878;2023-05-10T00:15:57;37.70;;;18.83;;
60088;SDS011;45961;53.574;55.878;2023-05-10T00:16:58;30.30;;;18.00;;
60088;SDS011;45961;53.574;55.878;2023-05-10T00:17:59;32.17;;;18.30;;
60088;SDS011;45961;53.574;55.878;2023-05-10T00:19:00;26.50;;;16.52;;
60088;SDS011;45961;53.574;55.878;2023-05-10T00:21:05;37.95;;;18.60;;
60088;SDS011;45961;53.574;55.878;2023-05-10T00:22:06;29.67;;;17.15;;
60088;SDS011;45961;53.574;55.878;2023-05-10T00:23:07;29.55;;;17.75;;
60088;SDS011;45961;53.574;55.878;2023-05-10T00:24:08;29.15;;;18.25;;
60088;SDS011;45961;53.574;55.878;2023-05-10T00:25:09;26.83;;;17.83;;
60088;SDS011;45961;53.574;55.878;2023-05-10T00:27:12;30.33;;;17.35;;
60088;SDS011;45961;53.574;55.878;2023-05-10T00:28:13;27.00;;;16.50;;
60088;SDS011;45961;53.574;55.878;2023-05-10T00:29:14;29.08;;;18.00;;
60088;SDS011;45961;53.574;55.878;2023-05-10T00:30:15;28.85;;;17.95;;
60088;SDS011;45961;53.574;55.878;2023-05-10T00:31:16;32.88;;;18.50;;
60088;SDS011;45961;53.574;55.878;2023-05-10T00:32:17;28.35;;;18.05;;
60088;SDS011;45961;53.574;55.878;2023-05-10T00:33:18;32.22;;;17.30;;
60088;SDS011;45961;53.574;55.878;2023-05-10T00:34:19;32.33;;;18.25;;
60088;SDS011;45961;53.574;55.878;2023-05-10T00:35:20;29.13;;;18.77;;
60088;SDS011;45961;53.574;55.878;2023-05-10T00:36:22;25.67;;;17.40;;
60088;SDS011;45961;53.574;55.878;2023-05-10T00:37:23;32.65;;;17.60;;
60088;SDS011;45961;53.574;55.878;2023-05-10T00:38:25;36.13;;;19.02;;
60088;SDS011;45961;53.574;55.878;2023-05-10T00:39:26;34.60;;;18.95;;
60088;SDS011;45961;53.574;55.878;2023-05-10T00:40:29;29.80;;;17.98;;
60088;SDS011;45961;53.574;55.878;2023-05-10T00:41:34;32.83;;;18.83;;
60088;SDS011;45961;53.574;55.878;2023-05-10T00:42:36;27.95;;;17.70;;
60088;SDS011;45961;53.574;55.878;2023-05-10T00:43:37;33.38;;;18.02;;
60088;SDS011;45961;53.574;55.878;2023-05-10T00:44:38;29.75;;;17.45;;
60088;SDS011;45961;53.574;55.878;2023-05-10T00:45:40;38.45;;;20.48;;
60088;SDS011;45961;53.574;55.878;2023-05-10T00:46:41;27.58;;;17.48;;
60088;SDS011;45961;53.574;55.878;2023-05-10T00:47:43;29.27;;;18.10;;
60088;SDS011;45961;53.574;55.878;2023-05-10T00:48:44;27.90;;;17.13;;
60088;SDS011;45961;53.574;55.878;2023-05-10T00:49:45;32.17;;;19.80;;
60088;SDS011;45961;53.574;55.878;2023-05-10T00:50:46;28.13;;;18.40;;
60088;SDS011;45961;53.574;55.878;2023-05-10T00:51:48;30.67;;;19.40;;
60088;SDS011;45961;53.574;55.878;2023-05-10T00:52:50;29.48;;;17.55;;
60088;SDS011;45961;53.574;55.878;2023-05-10T00:53:51;29.88;;;17.98;;
60088;SDS011;45961;53.574;55.878;2023-05-10T00:54:53;28.95;;;18.52;;
60088;SDS011;45961;53.574;55.878;2023-05-10T00:55:54;31.50;;;19.35;;
60088;SDS011;45961;53.574;55.878;2023-05-10T00:56:56;30.67;;;19.23;;
60088;SDS011;45961;53.574;55.878;2023-05-10T00:57:57;31.73;;;17.45;;
60088;SDS011;45961;53.574;55.878;2023-05-10T00:58:58;31.63;;;19.17;;
60088;SDS011;45961;53.574;55.878;2023-05-10T01:00:00;30.33;;;18.15;;
60088;SDS011;45961;53.574;55.878;2023-05-10T01:01:05;30.67;;;18.38;;
60088;SDS011;45961;53.574;55.878;2023-05-10T01:02:07;25.77;;;18.02;;
60088;SDS011;45961;53.574;55.878;2023-05-10T01:03:09;25.40;;;17.48;;
60088;SDS011;45961;53.574;55.878;2023-05-10T01:04:12;26.77;;;17.55;;
60088;SDS011;45961;53.574;55.878;2023-05-10T01:05:13;30.63;;;18.83;;
60088;SDS011;45961;53.574;55.878;2023-05-10T01:06:15;29.23;;;19.42;;
60088;SDS011;45961;53.574;55.878;2023-05-10T01:07:16;29.02;;;18.95;;
60088;SDS011;45961;53.574;55.878;2023-05-10T01:08:17;25.60;;;17.98;;
60088;SDS011;45961;53.574;55.878;2023-05-10T01:10:20;25.92;;;18.17;;
60088;SDS011;45961;53.574;55.878;2023-05-10T01:11:21;24.75;;;16.83;;
60088;SDS011;45961;53.574;55.878;2023-05-10T01:12:22;31.80;;;18.25;;
60088;SDS011;45961;53.574;55.878;2023-05-10T01:13:33;25.92;;;18.17;;
60088;SDS011;45961;53.574;55.878;2023-05-10T01:14:37;27.35;;;19.05;;
60088;SDS011;45961;53.574;55.878;2023-05-10T01:15:40;32.88;;;19.20;;
60088;SDS011;45961;53.574;55.878;2023-05-10T01:16:41;29.50;;;18.67;;
60088;SDS011;45961;53.574;55.878;2023-05-10T01:17:44;31.45;;;17.50;;
60088;SDS011;45961;53.574;55.878;2023-05-10T01:18:48;27.45;;;17.30;;
60088;SDS011;45961;53.574;55.878;2023-05-10T01:19:51;32.33;;;19.27;;
60088;SDS011;45961;53.574;55.878;2023-05-10T01:20:56;27.95;;;17.77;;
60088;SDS011;45961;53.574;55.878;2023-05-10T01:24:29;28.88;;;17.55;;
60088;SDS011;45961;53.574;55.878;2023-05-10T01:25:43;28.23;;;17.25;;
60088;SDS011;45961;53.574;55.878;2023-05-10T01:27:17;28.20;;;16.88;;
60088;SDS011;45961;53.574;55.878;2023-05-10T01:34:28;30.20;;;16.60;;
60088;SDS011;45961;53.574;55.878;2023-05-10T01:35:40;31.73;;;18.88;;
60088;SDS011;45961;53.574;55.878;2023-05-10T01:37:04;30.63;;;18.23;;
60088;SDS011;45961;53.574;55.878;2023-05-10T01:39:55;26.58;;;16.92;;
60088;SDS011;45961;53.574;55.878;2023-05-10T01:42:39;24.45;;;17.52;;
60088;SDS011;45961;53.574;55.878;2023-05-10T01:47:41;28.67;;;16.38;;
60088;SDS011;45961;53.574;55.878;2023-05-10T01:48:47;26.67;;;16.65;;
60088;SDS011;45961;53.574;55.878;2023-05-10T01:49:53;30.20;;;17.23;;
60088;SDS011;45961;53.574;55.878;2023-05-10T01:50:56;22.88;;;16.20;;
60088;SDS011;45961;53.574;55.878;2023-05-10T01:52:00;27.85;;;18.08;;
60088;SDS011;45961;53.574;55.878;2023-05-10T01:53:17;24.63;;;16.67;;
60088;SDS011;45961;53.574;55.878;2023-05-10T01:54:21;26.42;;;16.30;;
60088;SDS011;45961;53.574;55.878;2023-05-10T01:55:26;30.52;;;18.50;;
60088;SDS011;45961;53.574;55.878;2023-05-10T01:56:33;27.77;;;17.90;;
60088;SDS011;45961;53.574;55.878;2023-05-10T01:57:39;28.55;;;17.77;;
60088;SDS011;45961;53.574;55.878;2023-05-10T01:58:43;27.05;;;18.58;;
60088;SDS011;45961;53.574;55.878;2023-05-10T01:59:47;30.55;;;19.30;;
60088;SDS011;45961;53.574;55.878;2023-05-10T02:00:51;31.17;;;19.58;;
60088;SDS011;45961;53.574;55.878;2023-05-10T02:01:54;33.03;;;18.90;;
60088;SDS011;45961;53.574;55.878;2023-05-10T02:03:00;30.58;;;20.10;;
60088;SDS011;45961;53.574;55.878;2023-05-10T02:04:06;33.15;;;20.02;;
60088;SDS011;45961;53.574;55.878;2023-05-10T02:05:10;30.38;;;18.60;;
60088;SDS011;45961;53.574;55.878;2023-05-10T02:06:16;34.50;;;19.45;;
60088;SDS011;45961;53.574;55.878;2023-05-10T02:07:20;30.85;;;18.52;;
60088;SDS011;45961;53.574;55.878;2023-05-10T02:08:26;32.83;;;19.55;;
60088;SDS011;45961;53.574;55.878;2023-05-10T02:09:28;26.75;;;18.77;;
60088;SDS011;45961;53.574;55.878;2023-05-10T02:10:33;32.33;;;17.58;;
60088;SDS011;45961;53.574;55.878;2023-05-10T02:11:37;31.17;;;18.75;;
60088;SDS011;45961;53.574;55.878;2023-05-10T02:12:43;32.72;;;17.70;;
60088;SDS011;45961;53.574;55.878;2023-05-10T02:13:49;31.17;;;18.38;;
60088;SDS011;45961;53.574;55.878;2023-05-10T02:14:52;29.92;;;19.50;;
60088;SDS011;45961;53.574;55.878;2023-05-10T02:15:54;41.08;;;18.02;;
60088;SDS011;45961;53.574;55.878;2023-05-10T02:17:01;32.80;;;19.25;;
60088;SDS011;45961;53.574;55.878;2023-05-10T02:18:04;39.10;;;20.33;;
60088;SDS011;45961;53.574;55.878;2023-05-10T02:19:06;36.00;;;19.17;;
60088;SDS011;45961;53.574;55.878;2023-05-10T02:20:09;36.90;;;19.33;;
60088;SDS011;45961;53.574;55.878;2023-05-10T02:21:12;30.60;;;19.42;;
60088;SDS011;45961;53.574;55.878;2023-05-10T02:22:16;31.63;;;17.85;;
60088;SDS011;45961;53.574;55.878;2023-05-10T02:23:18;30.25;;;19.50;;
60088;SDS011;45961;53.574;55.878;2023-05-10T02:24:21;29.63;;;17.00;;
60088;SDS011;45961;53.574;55.878;2023-05-10T02:25:24;32.28;;;19.63;;
60088;SDS011;45961;53.574;55.878;2023-05-10T02:26:26;32.83;;;18.70;;
60088;SDS011;45961;53.574;55.878;2023-05-10T02:27:28;27.20;;;18.60;;
60088;SDS011;45961;53.574;55.878;2023-05-10T02:28:31;32.20;;;19.85;;
60088;SDS011;45961;53.574;55.878;2023-05-10T02:29:33;34.60;;;19.63;;
60088;SDS011;45961;53.574;55.878;2023-05-10T02:30:36;37.17;;;20.02;;
60088;SDS011;45961;53.574;55.878;2023-05-10T02:31:38;30.35;;;18.20;;
60088;SDS011;45961;53.574;55.878;2023-05-10T02:32:40;40.53;;;18.50;;
60088;SDS011;45961;53.574;55.878;2023-05-10T02:33:42;34.45;;;18.38;;
60088;SDS011;45961;53.574;55.878;2023-05-10T02:34:46;35.75;;;19.55;;
60088;SDS011;45961;53.574;55.878;2023-05-10T02:35:52;30.35;;;19.08;;
60088;SDS011;45961;53.574;55.878;2023-05-10T02:36:54;40.40;;;20.15;;
60088;SDS011;45961;53.574;55.878;2023-05-10T02:37:56;58.35;;;22.35;;
60088;SDS011;45961;53.574;55.878;2023-05-10T02:38:59;54.67;;;22.83;;
60088;SDS011;45961;53.574;55.878;2023-05-10T02:40:03;33.00;;;19.65;;
60088;SDS011;45961;53.574;55.878;2023-05-10T02:41:06;30.00;;;19.65;;
60088;SDS011;45961;53.574;55.878;2023-05-10T02:42:11;44.42;;;20.50;;
60088;SDS011;45961;53.574;55.878;2023-05-10T02:43:17;32.35;;;20.10;;
60088;SDS011;45961;53.574;55.878;2023-05-10T02:44:19;33.80;;;19.67;;
60088;SDS011;45961;53.574;55.878;2023-05-10T02:45:23;37.08;;;18.77;;
60088;SDS011;45961;53.574;55.878;2023-05-10T02:46:28;28.55;;;18.30;;
60088;SDS011;45961;53.574;55.878;2023-05-10T02:47:30;30.83;;;18.15;;
60088;SDS011;45961;53.574;55.878;2023-05-10T02:48:31;41.10;;;20.73;;
60088;SDS011;45961;53.574;55.878;2023-05-10T02:49:33;37.03;;;19.08;;
60088;SDS011;45961;53.574;55.878;2023-05-10T02:50:35;36.42;;;18.33;;
60088;SDS011;45961;53.574;55.878;2023-05-10T02:51:40;34.70;;;20.27;;
60088;SDS011;45961;53.574;55.878;2023-05-10T02:52:49;30.08;;;19.88;;
60088;SDS011;45961;53.574;55.878;2023-05-10T02:53:55;39.58;;;18.45;;
60088;SDS011;45961;53.574;55.878;2023-05-10T02:55:00;32.42;;;19.75;;
60088;SDS011;45961;53.574;55.878;2023-05-10T02:56:06;36.30;;;19.65;;
60088;SDS011;45961;53.574;55.878;2023-05-10T02:57:22;39.60;;;20.20;;
60088;SDS011;45961;53.574;55.878;2023-05-10T02:58:28;38.05;;;20.20;;
60088;SDS011;45961;53.574;55.878;2023-05-10T02:59:29;32.33;;;19.65;;
60088;SDS011;45961;53.574;55.878;2023-05-10T03:00:30;34.72;;;19.27;;
60088;SDS011;45961;53.574;55.878;2023-05-10T03:02:32;30.67;;;19.10;;
60088;SDS011;45961;53.574;55.878;2023-05-10T03:03:34;31.70;;;18.63;;
60088;SDS011;45961;53.574;55.878;2023-05-10T03:04:35;28.63;;;19.70;;
60088;SDS011;45961;53.574;55.878;2023-05-10T03:05:36;25.35;;;18.73;;
60088;SDS011;45961;53.574;55.878;2023-05-10T03:06:38;30.67;;;19.77;;
60088;SDS011;45961;53.574;55.878;2023-05-10T03:07:39;31.35;;;18.40;;
60088;SDS011;45961;53.574;55.878;2023-05-10T03:08:41;27.73;;;18.35;;
60088;SDS011;45961;53.574;55.878;2023-05-10T03:09:46;28.77;;;18.20;;
60088;SDS011;45961;53.574;55.878;2023-05-10T03:10:50;27.38;;;17.88;;
60088;SDS011;45961;53.574;55.878;2023-05-10T03:12:11;24.77;;;17.73;;
60088;SDS011;45961;53.574;55.878;2023-05-10T03:16:10;29.05;;;18.13;;
60088;SDS011;45961;53.574;55.878;2023-05-10T03:17:18;29.17;;;18.45;;
60088;SDS011;45961;53.574;55.878;2023-05-10T03:18:33;34.00;;;18.27;;
60088;SDS011;45961;53.574;55.878;2023-05-10T03:19:53;33.50;;;18.67;;
60088;SDS011;45961;53.574;55.878;2023-05-10T03:20:57;31.70;;;20.00;;
60088;SDS011;45961;53.574;55.878;2023-05-10T03:22:03;35.25;;;19.48;;
60088;SDS011;45961;53.574;55.878;2023-05-10T03:23:12;35.92;;;19.83;;
60088;SDS011;45961;53.574;55.878;2023-05-10T03:24:21;30.23;;;19.60;;
60088;SDS011;45961;53.574;55.878;2023-05-10T03:25:28;30.58;;;19.83;;
60088;SDS011;45961;53.574;55.878;2023-05-10T03:26:31;27.25;;;19.42;;
60088;SDS011;45961;53.574;55.878;2023-05-10T03:27:43;25.15;;;19.25;;
60088;SDS011;45961;53.574;55.878;2023-05-10T03:28:45;25.38;;;19.05;;
60088;SDS011;45961;53.574;55.878;2023-05-10T03:29:48;29.10;;;20.45;;
60088;SDS011;45961;53.574;55.878;2023-05-10T03:30:52;27.92;;;21.05;;
60088;SDS011;45961;53.574;55.878;2023-05-10T03:31:54;28.45;;;19.38;;
60088;SDS011;45961;53.574;55.878;2023-05-10T03:33:57;27.25;;;16.35;;
60088;SDS011;45961;53.574;55.878;2023-05-10T03:35:05;28.08;;;19.27;;
60088;SDS011;45961;53.574;55.878;2023-05-10T03:36:08;23.95;;;16.95;;
60088;SDS011;45961;53.574;55.878;2023-05-10T03:37:09;25.77;;;18.40;;
60088;SDS011;45961;53.574;55.878;2023-05-10T03:38:10;27.58;;;18.85;;
60088;SDS011;45961;53.574;55.878;2023-05-10T03:39:11;27.20;;;20.83;;
60088;SDS011;45961;53.574;55.878;2023-05-10T03:40:12;31.33;;;20.20;;
60088;SDS011;45961;53.574;55.878;2023-05-10T03:41:16;26.58;;;18.92;;
60088;SDS011;45961;53.574;55.878;2023-05-10T03:42:17;29.55;;;19.30;;
60088;SDS011;45961;53.574;55.878;2023-05-10T03:43:18;33.05;;;19.20;;
60088;SDS011;45961;53.574;55.878;2023-05-10T03:44:19;27.50;;;19.30;;
60088;SDS011;45961;53.574;55.878;2023-05-10T03:45:20;25.10;;;18.75;;
60088;SDS011;45961;53.574;55.878;2023-05-10T03:46:21;26.15;;;19.40;;
60088;SDS011;45961;53.574;55.878;2023-05-10T03:48:24;25.42;;;18.58;;
60088;SDS011;45961;53.574;55.878;2023-05-10T03:49:25;25.58;;;18.77;;
60088;SDS011;45961;53.574;55.878;2023-05-10T03:50:26;27.60;;;18.58;;
60088;SDS011;45961;53.574;55.878;2023-05-10T03:51:28;28.17;;;19.40;;
60088;SDS011;45961;53.574;55.878;2023-05-10T03:52:29;30.02;;;18.75;;
60088;SDS011;45961;53.574;55.878;2023-05-10T03:53:30;27.05;;;18.40;;
60088;SDS011;45961;53.574;55.878;2023-05-10T03:54:32;28.58;;;19.92;;
60088;SDS011;45961;53.574;55.878;2023-05-10T03:56:36;27.75;;;18.42;;
60088;SDS011;45961;53.574;55.878;2023-05-10T03:57:38;28.27;;;18.10;;
60088;SDS011;45961;53.574;55.878;2023-05-10T03:58:40;26.42;;;17.80;;
60088;SDS011;45961;53.574;55.878;2023-05-10T03:59:41;25.45;;;17.85;;
60088;SDS011;45961;53.574;55.878;2023-05-10T04:00:42;29.33;;;18.70;;
60088;SDS011;45961;53.574;55.878;2023-05-10T04:01:50;29.90;;;20.17;;
60088;SDS011;45961;53.574;55.878;2023-05-10T04:02:51;23.83;;;18.02;;
60088;SDS011;45961;53.574;55.878;2023-05-10T04:03:54;28.45;;;20.13;;
60088;SDS011;45961;53.574;55.878;2023-05-10T04:04:55;28.30;;;19.48;;
60088;SDS011;45961;53.574;55.878;2023-05-10T04:06:12;31.52;;;20.38;;
60088;SDS011;45961;53.574;55.878;2023-05-10T04:07:13;29.48;;;19.77;;
60088;SDS011;45961;53.574;55.878;2023-05-10T04:08:15;28.75;;;21.05;;
60088;SDS011;45961;53.574;55.878;2023-05-10T04:09:16;25.00;;;19.52;;
60088;SDS011;45961;53.574;55.878;2023-05-10T04:10:18;28.10;;;18.92;;
60088;SDS011;45961;53.574;55.878;2023-05-10T04:11:22;27.25;;;20.08;;
60088;SDS011;45961;53.574;55.878;2023-05-10T04:12:23;30.15;;;21.05;;
60088;SDS011;45961;53.574;55.878;2023-05-10T04:13:24;31.40;;;20.13;;
60088;SDS011;45961;53.574;55.878;2023-05-10T04:14:25;32.03;;;19.20;;
60088;SDS011;45961;53.574;55.878;2023-05-10T04:16:27;25.92;;;19.40;;
60088;SDS011;45961;53.574;55.878;2023-05-10T04:17:28;24.90;;;19.45;;
60088;SDS011;45961;53.574;55.878;2023-05-10T04:18:32;31.00;;;19.38;;
60088;SDS011;45961;53.574;55.878;2023-05-10T04:19:33;25.25;;;19.20;;
60088;SDS011;45961;53.574;55.878;2023-05-10T04:20:34;31.02;;;19.98;;
60088;SDS011;45961;53.574;55.878;2023-05-10T04:21:36;27.92;;;21.00;;
60088;SDS011;45961;53.574;55.878;2023-05-10T04:22:37;29.02;;;20.00;;
60088;SDS011;45961;53.574;55.878;2023-05-10T04:24:39;28.47;;;18.37;;
60088;SDS011;45961;53.574;55.878;2023-05-10T04:25:40;27.33;;;19.17;;
60088;SDS011;45961;53.574;55.878;2023-05-10T04:26:41;26.83;;;20.42;;
60088;SDS011;45961;53.574;55.878;2023-05-10T04:27:42;23.65;;;19.67;;
60088;SDS011;45961;53.574;55.878;2023-05-10T04:28:43;27.52;;;20.25;;
60088;SDS011;45961;53.574;55.878;2023-05-10T04:29:45;25.35;;;19.92;;
60088;SDS011;45961;53.574;55.878;2023-05-10T04:30:46;28.27;;;19.27;;
60088;SDS011;45961;53.574;55.878;2023-05-10T04:31:47;28.50;;;20.73;;
60088;SDS011;45961;53.574;55.878;2023-05-10T04:32:49;27.88;;;20.77;;
60088;SDS011;45961;53.574;55.878;2023-05-10T04:33:50;28.58;;;20.17;;
60088;SDS011;45961;53.574;55.878;2023-05-10T04:34:51;27.50;;;19.67;;
60088;SDS011;45961;53.574;55.878;2023-05-10T04:35:52;24.27;;;20.50;;
60088;SDS011;45961;53.574;55.878;2023-05-10T04:37:54;24.20;;;18.92;;
60088;SDS011;45961;53.574;55.878;2023-05-10T04:38:55;26.63;;;20.02;;
60088;SDS011;45961;53.574;55.878;2023-05-10T04:39:57;28.00;;;21.33;;
60088;SDS011;45961;53.574;55.878;2023-05-10T04:41:07;32.17;;;19.88;;
60088;SDS011;45961;53.574;55.878;2023-05-10T04:42:10;29.00;;;20.73;;
60088;SDS011;45961;53.574;55.878;2023-05-10T04:43:14;29.35;;;19.73;;
60088;SDS011;45961;53.574;55.878;2023-05-10T04:44:15;31.13;;;21.05;;
60088;SDS011;45961;53.574;55.878;2023-05-10T04:45:16;27.10;;;19.98;;
60088;SDS011;45961;53.574;55.878;2023-05-10T04:46:18;26.17;;;20.35;;
60088;SDS011;45961;53.574;55.878;2023-05-10T04:47:19;26.23;;;21.08;;
60088;SDS011;45961;53.574;55.878;2023-05-10T04:48:20;27.98;;;21.27;;
60088;SDS011;45961;53.574;55.878;2023-05-10T04:49:21;29.55;;;21.92;;
60088;SDS011;45961;53.574;55.878;2023-05-10T04:50:22;27.90;;;22.15;;
60088;SDS011;45961;53.574;55.878;2023-05-10T04:51:23;35.10;;;22.35;;
60088;SDS011;45961;53.574;55.878;2023-05-10T04:52:24;30.13;;;23.45;;
60088;SDS011;45961;53.574;55.878;2023-05-10T04:53:25;30.63;;;23.67;;
60088;SDS011;45961;53.574;55.878;2023-05-10T04:54:26;28.85;;;23.10;;
60088;SDS011;45961;53.574;55.878;2023-05-10T04:55:27;33.30;;;25.55;;
60088;SDS011;45961;53.574;55.878;2023-05-10T04:56:28;37.78;;;25.85;;
60088;SDS011;45961;53.574;55.878;2023-05-10T04:57:29;37.45;;;27.35;;
60088;SDS011;45961;53.574;55.878;2023-05-10T04:58:30;35.78;;;25.63;;
60088;SDS011;45961;53.574;55.878;2023-05-10T04:59:32;34.97;;;25.00;;
60088;SDS011;45961;53.574;55.878;2023-05-10T05:00:33;34.55;;;27.15;;
60088;SDS011;45961;53.574;55.878;2023-05-10T05:02:35;34.85;;;27.25;;
60088;SDS011;45961;53.574;55.878;2023-05-10T05:04:37;34.00;;;25.88;;
60088;SDS011;45961;53.574;55.878;2023-05-10T05:05:38;36.38;;;26.00;;
60088;SDS011;45961;53.574;55.878;2023-05-10T05:06:39;34.08;;;24.90;;
60088;SDS011;45961;53.574;55.878;2023-05-10T05:07:41;38.90;;;27.67;;
60088;SDS011;45961;53.574;55.878;2023-05-10T05:08:41;43.33;;;27.80;;
60088;SDS011;45961;53.574;55.878;2023-05-10T05:09:43;38.85;;;26.70;;
60088;SDS011;45961;53.574;55.878;2023-05-10T05:10:43;37.88;;;27.85;;
60088;SDS011;45961;53.574;55.878;2023-05-10T05:11:44;38.00;;;28.83;;
60088;SDS011;45961;53.574;55.878;2023-05-10T05:12:45;39.20;;;27.13;;
60088;SDS011;45961;53.574;55.878;2023-05-10T05:13:47;36.83;;;27.45;;
60088;SDS011;45961;53.574;55.878;2023-05-10T05:14:48;33.33;;;25.65;;
60088;SDS011;45961;53.574;55.878;2023-05-10T05:15:49;35.65;;;28.38;;
60088;SDS011;45961;53.574;55.878;2023-05-10T05:16:50;40.33;;;29.42;;
60088;SDS011;45961;53.574;55.878;2023-05-10T05:17:52;35.92;;;26.55;;
60088;SDS011;45961;53.574;55.878;2023-05-10T05:18:53;39.72;;;28.50;;
60088;SDS011;45961;53.574;55.878;2023-05-10T05:19:54;47.70;;;29.52;;
60088;SDS011;45961;53.574;55.878;2023-05-10T05:20:55;45.75;;;30.10;;
60088;SDS011;45961;53.574;55.878;2023-05-10T05:21:56;38.75;;;28.08;;
60088;SDS011;45961;53.574;55.878;2023-05-10T05:22:57;37.47;;;29.77;;
60088;SDS011;45961;53.574;55.878;2023-05-10T05:23:58;37.45;;;29.13;;
60088;SDS011;45961;53.574;55.878;2023-05-10T05:24:59;36.83;;;29.58;;
60088;SDS011;45961;53.574;55.878;2023-05-10T05:26:01;36.55;;;27.42;;
60088;SDS011;45961;53.574;55.878;2023-05-10T05:27:02;39.80;;;29.33;;
60088;SDS011;45961;53.574;55.878;2023-05-10T05:28:03;40.88;;;29.75;;
60088;SDS011;45961;53.574;55.878;2023-05-10T05:29:04;37.97;;;29.55;;
60088;SDS011;45961;53.574;55.878;2023-05-10T05:30:05;39.47;;;29.23;;
60088;SDS011;45961;53.574;55.878;2023-05-10T05:31:07;32.78;;;25.30;;
60088;SDS011;45961;53.574;55.878;2023-05-10T05:32:08;37.92;;;31.25;;
60088;SDS011;45961;53.574;55.878;2023-05-10T05:33:09;39.53;;;29.05;;
60088;SDS011;45961;53.574;55.878;2023-05-10T05:34:10;36.35;;;29.60;;
60088;SDS011;45961;53.574;55.878;2023-05-10T05:35:11;38.20;;;29.85;;
60088;SDS011;45961;53.574;55.878;2023-05-10T05:37:16;40.65;;;31.77;;
60088;SDS011;45961;53.574;55.878;2023-05-10T05:38:19;39.80;;;26.83;;
60088;SDS011;45961;53.574;55.878;2023-05-10T05:39:20;40.50;;;30.77;;
60088;SDS011;45961;53.574;55.878;2023-05-10T05:41:22;44.33;;;28.07;;
60088;SDS011;45961;53.574;55.878;2023-05-10T05:42:24;36.20;;;28.60;;
60088;SDS011;45961;53.574;55.878;2023-05-10T05:43:26;37.97;;;27.90;;
60088;SDS011;45961;53.574;55.878;2023-05-10T05:44:27;40.10;;;29.23;;
60088;SDS011;45961;53.574;55.878;2023-05-10T05:45:31;39.50;;;29.15;;
60088;SDS011;45961;53.574;55.878;2023-05-10T05:46:31;40.85;;;28.55;;
60088;SDS011;45961;53.574;55.878;2023-05-10T05:47:32;41.40;;;28.65;;
60088;SDS011;45961;53.574;55.878;2023-05-10T05:48:34;40.60;;;30.33;;
60088;SDS011;45961;53.574;55.878;2023-05-10T05:49:35;38.00;;;28.92;;
60088;SDS011;45961;53.574;55.878;2023-05-10T05:50:36;37.80;;;28.70;;
60088;SDS011;45961;53.574;55.878;2023-05-10T05:51:37;42.40;;;29.27;;
60088;SDS011;45961;53.574;55.878;2023-05-10T05:52:38;35.72;;;28.55;;
60088;SDS011;45961;53.574;55.878;2023-05-10T05:53:39;39.28;;;29.92;;
60088;SDS011;45961;53.574;55.878;2023-05-10T05:54:40;40.80;;;29.50;;
60088;SDS011;45961;53.574;55.878;2023-05-10T05:55:50;38.95;;;28.95;;
60088;SDS011;45961;53.574;55.878;2023-05-10T05:56:55;36.08;;;28.08;;
60088;SDS011;45961;53.574;55.878;2023-05-10T05:58:00;35.50;;;26.38;;
60088;SDS011;45961;53.574;55.878;2023-05-10T05:59:01;40.03;;;32.40;;
60088;SDS011;45961;53.574;55.878;2023-05-10T06:00:02;38.65;;;28.50;;
60088;SDS011;45961;53.574;55.878;2023-05-10T06:01:13;37.97;;;29.65;;
60088;SDS011;45961;53.574;55.878;2023-05-10T06:02:14;37.78;;;30.35;;
60088;SDS011;45961;53.574;55.878;2023-05-10T06:03:15;36.83;;;28.67;;
60088;SDS011;45961;53.574;55.878;2023-05-10T06:04:16;37.75;;;30.27;;
60088;SDS011;45961;53.574;55.878;2023-05-10T06:05:17;40.83;;;29.70;;
60088;SDS011;45961;53.574;55.878;2023-05-10T06:06:18;43.35;;;31.23;;
60088;SDS011;45961;53.574;55.878;2023-05-10T06:07:20;39.80;;;31.65;;
60088;SDS011;45961;53.574;55.878;2023-05-10T06:09:22;43.67;;;30.10;;
60088;SDS011;45961;53.574;55.878;2023-05-10T06:10:25;42.25;;;31.08;;
60088;SDS011;45961;53.574;55.878;2023-05-10T06:11:26;40.25;;;29.88;;
60088;SDS011;45961;53.574;55.878;2023-05-10T06:12:27;41.80;;;31.77;;
60088;SDS011;45961;53.574;55.878;2023-05-10T06:13:28;42.30;;;32.60;;
60088;SDS011;45961;53.574;55.878;2023-05-10T06:14:32;40.35;;;31.88;;
60088;SDS011;45961;53.574;55.878;2023-05-10T06:15:33;40.40;;;32.30;;
60088;SDS011;45961;53.574;55.878;2023-05-10T06:16:35;43.35;;;35.15;;
60088;SDS011;45961;53.574;55.878;2023-05-10T06:17:36;45.53;;;32.72;;
60088;SDS011;45961;53.574;55.878;2023-05-10T06:18:37;46.45;;;34.22;;
60088;SDS011;45961;53.574;55.878;2023-05-10T06:19:38;48.60;;;36.75;;
60088;SDS011;45961;53.574;55.878;2023-05-10T06:20:40;47.70;;;37.67;;
60088;SDS011;45961;53.574;55.878;2023-05-10T06:21:42;49.17;;;34.13;;
60088;SDS011;45961;53.574;55.878;2023-05-10T06:22:43;45.45;;;34.10;;
60088;SDS011;45961;53.574;55.878;2023-05-10T06:23:44;48.50;;;36.00;;
60088;SDS011;45961;53.574;55.878;2023-05-10T06:25:46;46.85;;;36.58;;
60088;SDS011;45961;53.574;55.878;2023-05-10T06:26:47;40.33;;;32.60;;
60088;SDS011;45961;53.574;55.878;2023-05-10T06:27:50;47.30;;;35.17;;
60088;SDS011;45961;53.574;55.878;2023-05-10T06:28:55;43.83;;;34.13;;
60088;SDS011;45961;53.574;55.878;2023-05-10T06:29:56;53.38;;;36.10;;
60088;SDS011;45961;53.574;55.878;2023-05-10T06:30:57;41.45;;;33.20;;
60088;SDS011;45961;53.574;55.878;2023-05-10T06:31:58;45.60;;;34.28;;
60088;SDS011;45961;53.574;55.878;2023-05-10T06:33:00;46.67;;;37.15;;
60088;SDS011;45961;53.574;55.878;2023-05-10T06:34:01;48.05;;;34.65;;
60088;SDS011;45961;53.574;55.878;2023-05-10T06:35:02;48.20;;;38.95;;
60088;SDS011;45961;53.574;55.878;2023-05-10T06:37:04;47.07;;;34.13;;
60088;SDS011;45961;53.574;55.878;2023-05-10T06:38:05;44.17;;;36.58;;
60088;SDS011;45961;53.574;55.878;2023-05-10T06:39:06;47.33;;;34.90;;